Time;durP1;ratioP1;P1;durP2;ratioP2;P2;SDS_P1;SDS_P2;PMS_P1;PMS_P2;Temp;Humidity;BMP_temperature;BMP_pressure;BME280_temperature;BME280_humidity;BME280_pressure;Samples;Min_cycle;Max_cycle;Signal;HPM_P1;HPM_P2
2023/05/17 00:01:23;;;;;;;2.93;1.67;;;;;;;;;;5064432;28;20178;-77
2023/05/17 00:03:48;;;;;;;2.60;1.70;;;;;;;;;;5065446;28;20237;-77
2023/05/17 00:06:13;;;;;;;2.37;1.90;;;;;;;;;;5061602;28;20189;-78
2023/05/17 00:08:39;;;;;;;6.63;2.60;;;;;;;;;;5070013;28;20184;-78
2023/05/17 00:11:04;;;;;;;5.37;1.60;;;;;;;;;;5063543;28;20189;-78
2023/05/17 00:13:29;;;;;;;3.30;1.73;;;;;;;;;;5065782;28;20181;-77
2023/05/17 00:15:54;;;;;;;2.53;1.90;;;;;;;;;;5067149;28;20191;-77
2023/05/17 00:18:19;;;;;;;2.40;2.20;;;;;;;;;;5066776;28;20185;-77
2023/05/17 00:20:45;;;;;;;6.00;1.93;;;;;;;;;;5064498;28;20270;-77
2023/05/17 00:23:10;;;;;;;1.90;1.70;;;;;;;;;;5061305;28;20182;-77
2023/05/17 00:25:35;;;;;;;2.53;1.63;;;;;;;;;;5065061;28;20186;-77
2023/05/17 00:28:00;;;;;;;3.83;1.90;;;;;;;;;;5064310;28;20174;-78
2023/05/17 00:30:25;;;;;;;6.40;2.27;;;;;;;;;;5066263;28;20206;-77
2023/05/17 00:32:51;;;;;;;4.50;1.90;;;;;;;;;;5063866;28;20185;-77
2023/05/17 00:35:16;;;;;;;5.20;2.20;;;;;;;;;;5064145;28;20196;-77
2023/05/17 00:37:46;;;;;;;3.47;2.23;;;;;;;;;;5063794;28;20187;-77
2023/05/17 00:40:12;;;;;;;3.20;2.03;;;;;;;;;;5066541;28;20216;-77
2023/05/17 00:42:37;;;;;;;3.10;2.13;;;;;;;;;;5062278;28;20182;-77
2023/05/17 00:45:02;;;;;;;5.80;2.20;;;;;;;;;;5066082;28;20176;-77
2023/05/17 00:47:27;;;;;;;6.13;2.03;;;;;;;;;;5064966;28;20176;-77
2023/05/17 00:49:53;;;;;;;3.17;1.70;;;;;;;;;;5065490;28;20221;-77
2023/05/17 00:52:18;;;;;;;4.73;2.23;;;;;;;;;;5064022;28;20189;-77
2023/05/17 00:54:44;;;;;;;3.23;1.70;;;;;;;;;;5059939;28;20244;-77
2023/05/17 00:57:09;;;;;;;3.73;1.97;;;;;;;;;;5058787;28;20295;-77
2023/05/17 00:59:36;;;;;;;4.23;1.97;;;;;;;;;;5065192;28;20211;-77
2023/05/17 01:02:01;;;;;;;1.97;1.60;;;;;;;;;;5062175;28;20174;-77
2023/05/17 01:04:26;;;;;;;2.63;1.57;;;;;;;;;;5063369;28;20231;-78
2023/05/17 01:06:52;;;;;;;2.60;1.97;;;;;;;;;;5062561;28;20251;-77
2023/05/17 01:09:17;;;;;;;4.93;2.10;;;;;;;;;;5064923;28;20212;-77
2023/05/17 01:11:55;;;;;;;1.97;1.77;;;;;;;;;;5063862;28;20174;-78
2023/05/17 01:14:23;;;;;;;3.23;2.10;;;;;;;;;;5062712;28;20188;-77
2023/05/17 01:16:54;;;;;;;4.33;1.77;;;;;;;;;;5063653;28;20172;-78
2023/05/17 01:19:38;;;;;;;2.20;2.00;;;;;;;;;;5063843;28;20201;-77
2023/05/17 01:22:22;;;;;;;4.17;2.10;;;;;;;;;;5062529;28;20171;-77
2023/05/17 01:25:07;;;;;;;2.70;1.93;;;;;;;;;;5062808;28;20215;-77
2023/05/17 01:27:35;;;;;;;4.93;2.50;;;;;;;;;;5064234;28;20249;-77
2023/05/17 01:30:01;;;;;;;2.20;1.80;;;;;;;;;;5063737;28;20189;-77
2023/05/17 01:32:27;;;;;;;4.50;2.00;;;;;;;;;;5063962;28;20188;-77
2023/05/17 01:34:52;;;;;;;2.30;2.00;;;;;;;;;;5061269;28;20189;-77
2023/05/17 01:37:17;;;;;;;2.00;1.80;;;;;;;;;;5061184;28;20224;-78
2023/05/17 01:39:42;;;;;;;5.80;2.30;;;;;;;;;;5064557;28;20241;-77
2023/05/17 01:42:20;;;;;;;2.30;1.83;;;;;;;;;;5063138;28;20196;-77
2023/05/17 01:45:04;;;;;;;2.00;1.80;;;;;;;;;;5060328;28;20195;-77
2023/05/17 01:47:33;;;;;;;4.50;1.90;;;;;;;;;;5060705;28;20184;-77
2023/05/17 01:49:59;;;;;;;2.93;2.00;;;;;;;;;;5063847;28;20187;-77
2023/05/17 01:52:24;;;;;;;3.63;1.87;;;;;;;;;;5063468;28;20178;-78
2023/05/17 01:55:04;;;;;;;2.60;1.73;;;;;;;;;;5063267;28;20184;-77
2023/05/17 01:57:32;;;;;;;2.87;2.30;;;;;;;;;;5063131;28;20246;-77
2023/05/17 01:59:59;;;;;;;4.60;2.70;;;;;;;;;;5053986;28;20212;-77
2023/05/17 02:02:24;;;;;;;4.67;1.87;;;;;;;;;;5062583;28;20209;-77
2023/05/17 02:04:50;;;;;;;4.33;2.07;;;;;;;;;;5062965;28;20175;-77
2023/05/17 02:07:15;;;;;;;4.23;1.73;;;;;;;;;;5064297;28;20186;-77
2023/05/17 02:09:40;;;;;;;3.13;2.13;;;;;;;;;;5065654;28;20268;-77
2023/05/17 02:12:06;;;;;;;4.73;2.23;;;;;;;;;;5062047;28;20177;-77
2023/05/17 02:14:31;;;;;;;3.83;2.20;;;;;;;;;;5063896;28;20246;-77
2023/05/17 02:16:57;;;;;;;2.47;2.10;;;;;;;;;;5064255;28;20279;-77
2023/05/17 02:19:22;;;;;;;3.33;2.40;;;;;;;;;;5062738;28;20204;-78
2023/05/17 02:21:47;;;;;;;4.57;2.77;;;;;;;;;;5059446;28;20184;-78
2023/05/17 02:24:12;;;;;;;5.10;2.23;;;;;;;;;;5060970;28;20173;-78
2023/05/17 02:26:41;;;;;;;3.73;2.00;;;;;;;;;;5064055;28;20173;-78
2023/05/17 02:29:06;;;;;;;4.40;2.33;;;;;;;;;;5066023;28;20184;-77
2023/05/17 02:31:31;;;;;;;3.20;2.10;;;;;;;;;;5066240;28;20174;-77
2023/05/17 02:33:57;;;;;;;3.47;1.83;;;;;;;;;;5067010;28;20176;-77
2023/05/17 02:36:22;;;;;;;4.10;1.80;;;;;;;;;;5065652;28;20243;-77
2023/05/17 02:38:47;;;;;;;3.27;2.00;;;;;;;;;;5064475;28;20265;-77
2023/05/17 02:41:12;;;;;;;5.13;2.03;;;;;;;;;;5065015;28;20237;-77
2023/05/17 02:43:37;;;;;;;2.53;1.80;;;;;;;;;;5062083;28;20199;-77
2023/05/17 02:46:03;;;;;;;2.90;1.77;;;;;;;;;;5066275;28;20188;-77
2023/05/17 02:48:28;;;;;;;4.07;1.67;;;;;;;;;;5067554;28;20195;-77
2023/05/17 02:50:53;;;;;;;3.40;2.23;;;;;;;;;;5062735;28;20180;-77
2023/05/17 02:53:18;;;;;;;2.87;1.87;;;;;;;;;;5064171;28;20184;-77
2023/05/17 02:55:44;;;;;;;5.63;2.40;;;;;;;;;;5063672;28;20184;-77
2023/05/17 02:58:09;;;;;;;5.43;2.43;;;;;;;;;;5066744;28;20264;-77
2023/05/17 03:00:34;;;;;;;5.07;2.10;;;;;;;;;;5065308;28;20211;-77
2023/05/17 03:03:00;;;;;;;4.87;2.40;;;;;;;;;;5065177;28;20205;-78
2023/05/17 03:05:25;;;;;;;4.60;2.07;;;;;;;;;;5066857;28;20181;-77
2023/05/17 03:07:51;;;;;;;4.33;2.20;;;;;;;;;;5062278;28;20180;-78
2023/05/17 03:10:16;;;;;;;2.93;2.00;;;;;;;;;;5066420;28;20177;-77
2023/05/17 03:12:41;;;;;;;3.57;2.30;;;;;;;;;;5064855;28;20213;-78
2023/05/17 03:15:06;;;;;;;3.50;2.73;;;;;;;;;;5066982;28;20185;-78
2023/05/17 03:17:32;;;;;;;2.50;2.00;;;;;;;;;;5066470;28;20176;-77
2023/05/17 03:19:57;;;;;;;3.47;2.23;;;;;;;;;;5064555;28;20201;-77
2023/05/17 03:22:22;;;;;;;7.97;2.40;;;;;;;;;;5065986;28;20206;-77
2023/05/17 03:24:47;;;;;;;4.37;1.93;;;;;;;;;;5064249;28;20211;-77
2023/05/17 03:27:12;;;;;;;4.07;2.60;;;;;;;;;;5066072;28;20299;-77
2023/05/17 03:29:38;;;;;;;3.97;2.00;;;;;;;;;;5064607;28;20190;-77
2023/05/17 03:32:03;;;;;;;5.53;2.43;;;;;;;;;;5066260;28;20192;-78
2023/05/17 03:34:28;;;;;;;2.70;1.90;;;;;;;;;;5063293;28;20203;-78
2023/05/17 03:36:53;;;;;;;4.47;2.00;;;;;;;;;;5064393;28;20223;-78
2023/05/17 03:39:19;;;;;;;2.27;2.07;;;;;;;;;;5066527;28;20211;-77
2023/05/17 03:41:44;;;;;;;3.90;1.90;;;;;;;;;;5064802;28;20268;-78
2023/05/17 03:44:09;;;;;;;4.67;2.20;;;;;;;;;;5066494;28;20295;-77
2023/05/17 03:46:34;;;;;;;2.43;2.23;;;;;;;;;;5065799;28;20190;-77
2023/05/17 03:48:59;;;;;;;3.37;2.17;;;;;;;;;;5067196;28;20191;-77
2023/05/17 03:51:25;;;;;;;6.87;2.57;;;;;;;;;;5060892;28;20244;-78
2023/05/17 03:53:56;;;;;;;3.40;2.57;;;;;;;;;;5055129;28;20181;-77
2023/05/17 03:56:21;;;;;;;6.70;2.80;;;;;;;;;;5065208;28;20182;-78
2023/05/17 03:58:46;;;;;;;3.57;2.10;;;;;;;;;;5065319;28;20189;-77
2023/05/17 04:01:11;;;;;;;3.03;2.00;;;;;;;;;;5062747;28;20236;-78
2023/05/17 04:03:37;;;;;;;2.70;2.50;;;;;;;;;;5065297;28;20284;-77
2023/05/17 04:06:05;;;;;;;6.00;2.50;;;;;;;;;;5063553;28;20180;-77
2023/05/17 04:08:31;;;;;;;5.03;2.50;;;;;;;;;;5067940;28;20184;-77
2023/05/17 04:10:56;;;;;;;7.00;3.40;;;;;;;;;;5065811;28;20239;-77
2023/05/17 04:13:21;;;;;;;5.37;2.40;;;;;;;;;;5069605;28;20208;-78
2023/05/17 04:15:46;;;;;;;2.43;2.23;;;;;;;;;;5059685;28;20205;-78
2023/05/17 04:18:11;;;;;;;4.90;2.20;;;;;;;;;;5065147;28;20191;-77
2023/05/17 04:20:37;;;;;;;6.67;2.67;;;;;;;;;;5062653;28;20203;-77
2023/05/17 04:23:02;;;;;;;5.57;2.63;;;;;;;;;;5062989;28;20245;-77
2023/05/17 04:25:27;;;;;;;4.97;2.60;;;;;;;;;;5066037;28;20190;-77
2023/05/17 04:27:52;;;;;;;7.70;2.47;;;;;;;;;;5062634;28;20274;-78
2023/05/17 04:30:20;;;;;;;8.67;4.07;;;;;;;;;;5065360;28;20195;-77
2023/05/17 04:32:45;;;;;;;8.83;5.43;;;;;;;;;;5064851;28;20183;-78
2023/05/17 04:35:11;;;;;;;5.23;3.00;;;;;;;;;;5064163;28;20213;-77
2023/05/17 04:37:38;;;;;;;5.37;2.93;;;;;;;;;;5062170;28;20382;-77
2023/05/17 04:40:04;;;;;;;5.60;3.47;;;;;;;;;;5061552;28;20235;-77
2023/05/17 04:42:29;;;;;;;5.40;2.60;;;;;;;;;;5062018;28;20182;-77
2023/05/17 04:44:56;;;;;;;6.10;2.87;;;;;;;;;;5067206;28;20186;-77
2023/05/17 04:47:21;;;;;;;7.13;3.43;;;;;;;;;;5069408;28;20185;-77
2023/05/17 04:49:47;;;;;;;5.53;3.30;;;;;;;;;;5056825;28;20263;-77
2023/05/17 04:52:12;;;;;;;4.93;2.83;;;;;;;;;;5064180;28;20203;-77
2023/05/17 04:54:38;;;;;;;5.97;2.93;;;;;;;;;;5061989;28;20187;-77
2023/05/17 04:57:03;;;;;;;4.67;2.60;;;;;;;;;;5062455;28;20184;-78
2023/05/17 04:59:28;;;;;;;6.03;2.80;;;;;;;;;;5059332;28;20194;-78
2023/05/17 05:01:53;;;;;;;3.80;2.60;;;;;;;;;;5061805;28;20284;-78
2023/05/17 05:04:18;;;;;;;4.10;2.87;;;;;;;;;;5064605;28;20210;-78
2023/05/17 05:06:44;;;;;;;3.83;2.70;;;;;;;;;;5061958;28;20199;-78
2023/05/17 05:09:09;;;;;;;5.83;3.83;;;;;;;;;;5064581;28;20180;-78
2023/05/17 05:11:35;;;;;;;5.30;3.07;;;;;;;;;;5057684;28;20184;-78
2023/05/17 05:14:00;;;;;;;4.17;2.30;;;;;;;;;;5062349;28;20183;-78
2023/05/17 05:16:25;;;;;;;5.63;3.20;;;;;;;;;;5064684;28;20225;-78
2023/05/17 05:18:50;;;;;;;3.17;2.53;;;;;;;;;;5062307;28;20186;-78
2023/05/17 05:21:15;;;;;;;3.87;3.37;;;;;;;;;;5065412;28;20208;-78
2023/05/17 05:23:41;;;;;;;4.87;2.97;;;;;;;;;;5062459;28;20219;-79
2023/05/17 05:26:06;;;;;;;6.13;2.87;;;;;;;;;;5067143;28;20172;-78
2023/05/17 05:28:31;;;;;;;6.87;3.17;;;;;;;;;;5063282;28;20187;-78
2023/05/17 05:31:00;;;;;;;7.63;4.03;;;;;;;;;;5064782;28;20210;-78
2023/05/17 05:33:25;;;;;;;6.53;3.23;;;;;;;;;;5064221;28;20188;-78
2023/05/17 05:35:50;;;;;;;4.00;3.00;;;;;;;;;;5064414;28;20224;-78
2023/05/17 05:38:15;;;;;;;5.63;3.23;;;;;;;;;;5063864;28;20178;-78
2023/05/17 05:40:42;;;;;;;5.03;3.20;;;;;;;;;;5061595;28;20318;-78
2023/05/17 05:43:07;;;;;;;4.67;2.70;;;;;;;;;;5064490;28;20253;-77
2023/05/17 05:45:32;;;;;;;5.07;3.17;;;;;;;;;;5062379;28;20203;-78
2023/05/17 05:47:57;;;;;;;9.63;3.67;;;;;;;;;;5062481;28;20190;-78
2023/05/17 05:50:23;;;;;;;9.57;3.30;;;;;;;;;;5063030;28;20196;-78
2023/05/17 05:52:48;;;;;;;5.17;2.73;;;;;;;;;;5062615;28;20188;-77
2023/05/17 05:55:13;;;;;;;5.60;2.50;;;;;;;;;;5062144;28;20247;-79
2023/05/17 05:57:38;;;;;;;3.60;2.50;;;;;;;;;;5063772;28;20219;-78
2023/05/17 06:00:04;;;;;;;5.60;2.60;;;;;;;;;;5064161;28;20307;-79
2023/05/17 06:02:29;;;;;;;6.70;3.57;;;;;;;;;;5061644;28;20204;-79
2023/05/17 06:04:54;;;;;;;4.10;2.80;;;;;;;;;;5057138;28;20187;-79
2023/05/17 06:07:20;;;;;;;2.60;2.33;;;;;;;;;;5063856;28;20204;-79
2023/05/17 06:09:45;;;;;;;4.47;3.17;;;;;;;;;;5064822;28;20197;-79
2023/05/17 06:12:10;;;;;;;3.83;2.90;;;;;;;;;;5065632;28;20188;-79
2023/05/17 06:14:37;;;;;;;4.10;2.93;;;;;;;;;;5063137;28;20188;-79
2023/05/17 06:17:02;;;;;;;3.47;2.17;;;;;;;;;;5064695;28;20181;-79
2023/05/17 06:19:27;;;;;;;6.97;3.57;;;;;;;;;;5064316;28;20227;-79
2023/05/17 06:21:53;;;;;;;4.57;2.93;;;;;;;;;;5064871;28;20221;-80
2023/05/17 06:24:18;;;;;;;8.03;3.23;;;;;;;;;;5063851;28;20180;-79
2023/05/17 06:26:43;;;;;;;5.90;3.50;;;;;;;;;;5064660;28;20186;-79
2023/05/17 06:29:08;;;;;;;4.57;2.50;;;;;;;;;;5063377;28;20170;-79
2023/05/17 06:31:34;;;;;;;9.13;3.40;;;;;;;;;;5065770;28;20199;-80
2023/05/17 06:33:59;;;;;;;3.57;2.90;;;;;;;;;;5062019;28;20169;-79
2023/05/17 06:36:24;;;;;;;5.33;3.13;;;;;;;;;;5062720;28;20250;-79
2023/05/17 06:38:50;;;;;;;3.97;2.60;;;;;;;;;;5064635;28;20187;-79
2023/05/17 06:41:15;;;;;;;3.80;2.80;;;;;;;;;;5063420;28;20216;-79
2023/05/17 06:43:40;;;;;;;4.37;3.53;;;;;;;;;;5064163;28;20204;-79
2023/05/17 06:46:05;;;;;;;5.90;3.60;;;;;;;;;;5063600;28;20177;-80
2023/05/17 06:48:31;;;;;;;8.73;3.30;;;;;;;;;;5063259;28;20185;-80
2023/05/17 06:50:56;;;;;;;5.27;2.87;;;;;;;;;;5063716;28;20182;-80
2023/05/17 06:53:21;;;;;;;4.63;2.67;;;;;;;;;;5064655;28;20184;-80
2023/05/17 06:55:46;;;;;;;4.33;3.30;;;;;;;;;;5060909;28;20210;-79
2023/05/17 06:58:12;;;;;;;4.63;3.13;;;;;;;;;;5062527;28;20192;-79
2023/05/17 07:00:37;;;;;;;9.57;3.53;;;;;;;;;;5059130;28;20262;-80
2023/05/17 07:03:02;;;;;;;6.13;3.60;;;;;;;;;;5063326;28;20247;-79
2023/05/17 07:05:29;;;;;;;8.47;3.57;;;;;;;;;;5062499;28;20235;-80
2023/05/17 07:07:54;;;;;;;5.10;3.10;;;;;;;;;;5064350;28;20185;-79
2023/05/17 07:10:20;;;;;;;5.80;2.87;;;;;;;;;;5062280;28;20191;-79
2023/05/17 07:12:45;;;;;;;7.17;4.10;;;;;;;;;;5059230;28;20184;-80
2023/05/17 07:15:11;;;;;;;5.03;2.93;;;;;;;;;;5064456;28;20227;-80
2023/05/17 07:17:36;;;;;;;5.10;3.70;;;;;;;;;;5065891;28;20204;-80
2023/05/17 07:20:02;;;;;;;3.77;3.07;;;;;;;;;;5068135;28;20197;-80
2023/05/17 07:22:27;;;;;;;6.90;3.23;;;;;;;;;;5064717;28;20204;-80
2023/05/17 07:24:52;;;;;;;5.93;3.40;;;;;;;;;;5065855;28;20264;-79
2023/05/17 07:27:17;;;;;;;4.27;2.73;;;;;;;;;;5064955;28;20233;-80
2023/05/17 07:29:43;;;;;;;7.77;3.80;;;;;;;;;;5060679;28;20181;-80
2023/05/17 07:32:08;;;;;;;5.10;3.10;;;;;;;;;;5064809;28;20190;-80
2023/05/17 07:34:34;;;;;;;4.97;3.63;;;;;;;;;;5064583;28;20188;-79
2023/05/17 07:36:59;;;;;;;5.47;3.57;;;;;;;;;;5066909;28;20242;-79
2023/05/17 07:39:24;;;;;;;7.83;3.70;;;;;;;;;;5060200;28;20217;-80
2023/05/17 07:41:49;;;;;;;5.93;3.40;;;;;;;;;;5065919;28;20204;-80
2023/05/17 07:44:15;;;;;;;6.37;3.30;;;;;;;;;;5066791;28;20217;-79
2023/05/17 07:46:40;;;;;;;7.93;3.60;;;;;;;;;;5064999;28;20173;-80
2023/05/17 07:49:05;;;;;;;7.97;3.90;;;;;;;;;;5067323;28;20177;-81
2023/05/17 07:51:30;;;;;;;5.13;3.90;;;;;;;;;;5066217;28;20177;-79
2023/05/17 07:53:56;;;;;;;7.87;5.00;;;;;;;;;;5066680;28;20182;-79
2023/05/17 07:56:21;;;;;;;4.00;3.20;;;;;;;;;;5063951;28;20206;-79
2023/05/17 07:58:46;;;;;;;8.20;3.77;;;;;;;;;;5063385;28;20243;-79
2023/05/17 08:01:11;;;;;;;5.23;3.70;;;;;;;;;;5063013;28;20212;-79
2023/05/17 08:03:36;;;;;;;8.30;4.93;;;;;;;;;;5066425;28;20207;-80
2023/05/17 08:06:02;;;;;;;3.33;2.97;;;;;;;;;;5066198;28;20179;-79
2023/05/17 08:08:27;;;;;;;6.23;3.57;;;;;;;;;;5065315;28;20258;-79
2023/05/17 08:10:52;;;;;;;4.90;3.40;;;;;;;;;;5066453;28;20192;-80
2023/05/17 08:13:17;;;;;;;6.70;3.57;;;;;;;;;;5066033;28;20178;-79
2023/05/17 08:15:42;;;;;;;4.40;3.60;;;;;;;;;;5062328;28;20178;-80
2023/05/17 08:18:08;;;;;;;8.07;4.40;;;;;;;;;;5065193;28;20182;-79
2023/05/17 08:20:33;;;;;;;4.73;3.60;;;;;;;;;;5062114;28;20221;-79
2023/05/17 08:22:58;;;;;;;7.37;3.60;;;;;;;;;;5066269;28;20207;-80
2023/05/17 08:25:23;;;;;;;4.30;2.87;;;;;;;;;;5066085;28;20174;-79
2023/05/17 08:27:49;;;;;;;9.63;3.90;;;;;;;;;;5066371;28;20185;-80
2023/05/17 08:30:14;;;;;;;4.50;2.53;;;;;;;;;;5064074;28;20194;-79
2023/05/17 08:32:39;;;;;;;9.03;4.20;;;;;;;;;;5062174;28;20214;-79
2023/05/17 08:35:05;;;;;;;8.50;3.33;;;;;;;;;;5065465;28;20253;-78
2023/05/17 08:37:30;;;;;;;4.63;2.97;;;;;;;;;;5058846;28;20248;-79
2023/05/17 08:39:55;;;;;;;5.80;3.57;;;;;;;;;;5065574;28;20201;-79
2023/05/17 08:42:24;;;;;;;3.13;2.37;;;;;;;;;;5063599;28;20257;-79
2023/05/17 08:44:49;;;;;;;6.97;3.10;;;;;;;;;;5064621;28;20204;-80
2023/05/17 08:47:24;;;;;;;5.37;3.50;;;;;;;;;;5064522;28;20178;-79
2023/05/17 08:49:50;;;;;;;6.97;2.87;;;;;;;;;;5064136;28;20169;-80
2023/05/17 08:52:15;;;;;;;3.83;2.47;;;;;;;;;;5063820;28;20269;-79
2023/05/17 08:54:41;;;;;;;3.57;3.23;;;;;;;;;;5065485;28;20227;-79
2023/05/17 08:57:06;;;;;;;5.60;3.40;;;;;;;;;;5064567;28;20177;-79
2023/05/17 08:59:33;;;;;;;6.07;3.20;;;;;;;;;;5065796;28;20209;-79
2023/05/17 09:01:59;;;;;;;5.57;2.90;;;;;;;;;;5062876;28;20182;-79
2023/05/17 09:04:24;;;;;;;5.07;3.40;;;;;;;;;;5064494;28;20184;-80
2023/05/17 09:06:50;;;;;;;4.33;2.93;;;;;;;;;;5062707;28;20185;-80
2023/05/17 09:09:17;;;;;;;5.17;3.27;;;;;;;;;;5063962;28;20201;-79
2023/05/17 09:11:42;;;;;;;3.87;2.73;;;;;;;;;;5064482;28;20190;-80
2023/05/17 09:14:08;;;;;;;3.77;3.10;;;;;;;;;;5065051;28;20170;-80
2023/05/17 09:16:34;;;;;;;4.07;3.50;;;;;;;;;;5066199;28;20174;-79
2023/05/17 09:18:59;;;;;;;4.67;2.83;;;;;;;;;;5064335;28;20171;-79
2023/05/17 09:21:25;;;;;;;4.93;2.90;;;;;;;;;;5064560;28;20217;-80
2023/05/17 09:23:51;;;;;;;5.60;2.97;;;;;;;;;;5064606;28;20193;-79
2023/05/17 09:26:17;;;;;;;8.90;3.83;;;;;;;;;;5064710;28;20190;-80
2023/05/17 09:28:42;;;;;;;5.53;3.50;;;;;;;;;;5064054;28;20182;-80
2023/05/17 09:31:08;;;;;;;5.50;2.70;;;;;;;;;;5060514;28;20245;-79
2023/05/17 09:33:34;;;;;;;3.20;2.90;;;;;;;;;;5063443;28;20198;-79
2023/05/17 09:36:02;;;;;;;8.23;2.87;;;;;;;;;;5059626;28;20222;-80
2023/05/17 09:38:28;;;;;;;4.67;2.83;;;;;;;;;;5064430;28;20273;-80
2023/05/17 09:40:53;;;;;;;3.60;2.40;;;;;;;;;;5064738;28;20301;-80
2023/05/17 09:43:22;;;;;;;3.43;2.70;;;;;;;;;;5062462;28;20171;-79
2023/05/17 09:45:53;;;;;;;3.27;2.80;;;;;;;;;;5062137;28;20178;-80
2023/05/17 09:48:21;;;;;;;7.63;3.40;;;;;;;;;;5060979;28;20175;-80
2023/05/17 09:50:47;;;;;;;3.20;2.57;;;;;;;;;;5063244;28;20273;-79
2023/05/17 09:53:22;;;;;;;5.40;2.60;;;;;;;;;;5063121;28;20180;-79
2023/05/17 09:55:48;;;;;;;5.63;3.03;;;;;;;;;;5060385;28;20177;-79
2023/05/17 09:58:13;;;;;;;5.60;3.40;;;;;;;;;;5060158;28;20177;-79
2023/05/17 10:00:39;;;;;;;7.23;3.80;;;;;;;;;;5061614;28;20237;-80
2023/05/17 10:03:04;;;;;;;4.77;3.33;;;;;;;;;;5063533;28;20213;-80
2023/05/17 10:05:30;;;;;;;7.23;3.30;;;;;;;;;;5065403;28;20216;-80
2023/05/17 10:07:55;;;;;;;3.90;2.87;;;;;;;;;;5066536;28;20198;-79
2023/05/17 10:10:20;;;;;;;4.63;3.43;;;;;;;;;;5064009;28;20189;-79
2023/05/17 10:12:46;;;;;;;7.80;3.60;;;;;;;;;;5063868;28;20206;-79
2023/05/17 10:15:11;;;;;;;7.23;3.27;;;;;;;;;;5065613;28;20183;-80
2023/05/17 10:17:40;;;;;;;5.27;3.23;;;;;;;;;;5062613;28;20182;-79
2023/05/17 10:20:07;;;;;;;5.60;3.33;;;;;;;;;;5064275;28;20281;-80
2023/05/17 10:22:32;;;;;;;3.37;3.07;;;;;;;;;;5064658;28;20187;-79
2023/05/17 10:24:58;;;;;;;4.93;3.77;;;;;;;;;;5062859;28;20191;-80
2023/05/17 10:27:23;;;;;;;5.10;3.20;;;;;;;;;;5064072;28;20183;-79
2023/05/17 10:29:50;;;;;;;5.40;3.50;;;;;;;;;;5064705;28;20186;-80
2023/05/17 10:32:18;;;;;;;5.33;2.87;;;;;;;;;;5062206;28;20195;-79
2023/05/17 10:34:44;;;;;;;7.50;3.53;;;;;;;;;;5054953;28;20251;-79
2023/05/17 10:37:10;;;;;;;5.17;3.07;;;;;;;;;;5061179;28;20220;-79
2023/05/17 10:39:37;;;;;;;5.20;3.20;;;;;;;;;;5064463;28;20208;-80
2023/05/17 10:42:04;;;;;;;6.53;3.40;;;;;;;;;;5058196;28;20179;-80
2023/05/17 10:44:31;;;;;;;5.37;2.90;;;;;;;;;;5064967;28;20176;-80
2023/05/17 10:46:58;;;;;;;4.33;3.20;;;;;;;;;;5059162;28;20181;-80
2023/05/17 10:49:32;;;;;;;5.83;3.40;;;;;;;;;;5064301;28;20178;-80
2023/05/17 10:52:18;;;;;;;5.20;3.40;;;;;;;;;;5062541;28;20184;-80
2023/05/17 10:54:46;;;;;;;4.90;3.07;;;;;;;;;;5063433;28;20234;-80
2023/05/17 10:57:19;;;;;;;6.73;3.07;;;;;;;;;;5063152;28;20180;-80
2023/05/17 10:59:57;;;;;;;8.27;3.77;;;;;;;;;;5062776;28;20251;-79
2023/05/17 11:02:23;;;;;;;6.13;4.10;;;;;;;;;;5063532;28;20207;-79
2023/05/17 11:04:52;;;;;;;5.97;3.07;;;;;;;;;;5067374;28;20176;-80
2023/05/17 11:07:20;;;;;;;6.90;3.77;;;;;;;;;;5067175;28;20183;-80
2023/05/17 11:09:49;;;;;;;6.23;3.70;;;;;;;;;;5064385;28;20200;-80
2023/05/17 11:12:15;;;;;;;7.07;4.37;;;;;;;;;;5065238;28;20176;-80
2023/05/17 11:14:43;;;;;;;4.50;3.20;;;;;;;;;;5066559;28;20198;-80
2023/05/17 11:17:12;;;;;;;8.23;3.53;;;;;;;;;;5066021;28;20176;-80
2023/05/17 11:19:38;;;;;;;3.90;3.20;;;;;;;;;;5067318;28;20226;-80
2023/05/17 11:22:09;;;;;;;5.80;3.40;;;;;;;;;;5063432;28;20266;-80
2023/05/17 11:24:35;;;;;;;7.70;4.83;;;;;;;;;;5062115;28;20196;-80
2023/05/17 11:27:03;;;;;;;6.93;3.63;;;;;;;;;;5066526;28;20182;-80
2023/05/17 11:29:29;;;;;;;9.43;3.60;;;;;;;;;;5067568;28;20173;-79
2023/05/17 11:31:55;;;;;;;6.87;3.97;;;;;;;;;;5064174;28;20203;-80
2023/05/17 11:34:22;;;;;;;4.10;3.63;;;;;;;;;;5062931;28;20181;-79
2023/05/17 11:36:48;;;;;;;9.10;3.83;;;;;;;;;;5066244;28;20231;-80
2023/05/17 11:39:14;;;;;;;10.03;4.17;;;;;;;;;;5067664;28;20185;-80
2023/05/17 11:41:47;;;;;;;5.40;3.30;;;;;;;;;;5066722;28;20196;-80
2023/05/17 11:44:12;;;;;;;5.87;3.53;;;;;;;;;;5062517;28;20272;-80
2023/05/17 11:46:38;;;;;;;10.20;6.03;;;;;;;;;;5063145;28;20271;-78
2023/05/17 11:49:05;;;;;;;5.77;3.87;;;;;;;;;;5066049;28;20189;-78
2023/05/17 11:51:31;;;;;;;5.73;3.13;;;;;;;;;;5066326;28;20184;-78
2023/05/17 11:53:56;;;;;;;6.67;2.93;;;;;;;;;;5064895;28;20202;-78
2023/05/17 11:56:22;;;;;;;4.40;3.37;;;;;;;;;;5064623;28;20184;-78
2023/05/17 11:58:50;;;;;;;5.67;3.40;;;;;;;;;;5066931;28;20192;-78
2023/05/17 12:01:15;;;;;;;3.67;2.60;;;;;;;;;;5062970;28;20476;-78
2023/05/17 12:03:46;;;;;;;5.53;3.37;;;;;;;;;;5061513;28;20322;-78
2023/05/17 12:06:12;;;;;;;6.57;3.17;;;;;;;;;;5064605;28;20200;-78
2023/05/17 12:08:38;;;;;;;5.53;3.20;;;;;;;;;;5060106;28;20188;-78
2023/05/17 12:11:04;;;;;;;6.07;3.07;;;;;;;;;;5057507;28;20254;-78
2023/05/17 12:13:30;;;;;;;4.67;2.80;;;;;;;;;;5061036;28;20281;-78
2023/05/17 12:15:57;;;;;;;6.37;3.23;;;;;;;;;;5071299;28;20178;-78
2023/05/17 12:18:22;;;;;;;5.90;3.57;;;;;;;;;;5063870;28;20226;-78
2023/05/17 12:20:55;;;;;;;5.47;3.03;;;;;;;;;;5064949;28;20255;-78
2023/05/17 12:23:27;;;;;;;10.70;3.43;;;;;;;;;;5063634;28;20176;-78
2023/05/17 12:26:00;;;;;;;3.73;3.37;;;;;;;;;;5064321;28;20177;-78
2023/05/17 12:28:25;;;;;;;3.60;3.13;;;;;;;;;;5059326;28;20177;-78
2023/05/17 12:30:52;;;;;;;5.90;3.17;;;;;;;;;;5063671;28;20290;-78
2023/05/17 12:33:17;;;;;;;5.87;4.50;;;;;;;;;;5059044;28;20185;-78
2023/05/17 12:35:43;;;;;;;7.40;3.33;;;;;;;;;;5062359;28;20289;-78
2023/05/17 12:38:10;;;;;;;5.23;2.80;;;;;;;;;;5063329;28;20224;-78
2023/05/17 12:40:35;;;;;;;4.37;3.10;;;;;;;;;;5061124;28;20223;-78
2023/05/17 12:43:03;;;;;;;7.27;3.30;;;;;;;;;;5061014;28;20263;-78
2023/05/17 12:45:28;;;;;;;9.20;3.40;;;;;;;;;;5063676;28;20248;-78
2023/05/17 12:47:54;;;;;;;5.47;3.77;;;;;;;;;;5061895;28;20299;-78
2023/05/17 12:50:29;;;;;;;7.87;4.10;;;;;;;;;;5062826;28;20253;-78
2023/05/17 12:52:54;;;;;;;3.47;2.80;;;;;;;;;;5062742;28;20203;-78
2023/05/17 12:55:20;;;;;;;4.73;2.73;;;;;;;;;;5062315;28;20188;-78
2023/05/17 12:57:52;;;;;;;4.87;3.43;;;;;;;;;;5064712;28;20297;-78
2023/05/17 13:00:18;;;;;;;6.53;3.40;;;;;;;;;;5059137;28;20216;-77
2023/05/17 13:02:43;;;;;;;8.63;3.27;;;;;;;;;;5062903;28;20192;-77
2023/05/17 13:05:15;;;;;;;9.33;3.47;;;;;;;;;;5061520;28;20177;-77
2023/05/17 13:07:40;;;;;;;5.93;3.13;;;;;;;;;;5061686;28;20177;-77
2023/05/17 13:10:18;;;;;;;4.80;3.17;;;;;;;;;;5061882;28;20186;-78
2023/05/17 13:12:52;;;;;;;6.97;2.70;;;;;;;;;;5061409;28;20188;-77
2023/05/17 13:15:18;;;;;;;5.33;2.90;;;;;;;;;;5060002;28;20253;-78
2023/05/17 13:17:48;;;;;;;3.13;2.57;;;;;;;;;;5063018;28;20292;-77
2023/05/17 13:20:13;;;;;;;5.33;2.77;;;;;;;;;;5058523;28;20198;-77
2023/05/17 13:22:45;;;;;;;6.23;3.93;;;;;;;;;;5061863;28;20190;-77
2023/05/17 13:25:11;;;;;;;5.30;3.60;;;;;;;;;;5062048;28;20201;-78
2023/05/17 13:27:36;;;;;;;6.57;3.73;;;;;;;;;;5061409;28;20404;-77
2023/05/17 13:30:01;;;;;;;4.67;3.07;;;;;;;;;;5057643;28;20174;-77
2023/05/17 13:32:26;;;;;;;5.47;3.33;;;;;;;;;;5065007;28;20178;-77
2023/05/17 13:34:52;;;;;;;5.37;2.87;;;;;;;;;;5061880;28;20185;-78
2023/05/17 13:37:17;;;;;;;4.07;2.90;;;;;;;;;;5064490;28;20228;-78
2023/05/17 13:39:42;;;;;;;6.83;3.30;;;;;;;;;;5059265;28;20331;-77
2023/05/17 13:42:08;;;;;;;5.10;2.80;;;;;;;;;;5061893;28;20188;-77
2023/05/17 13:44:33;;;;;;;3.17;2.87;;;;;;;;;;5060416;28;20188;-78
2023/05/17 13:46:59;;;;;;;4.20;3.17;;;;;;;;;;5062142;28;20192;-78
2023/05/17 13:49:25;;;;;;;4.63;3.10;;;;;;;;;;5073007;28;20243;-78
2023/05/17 13:51:50;;;;;;;4.20;2.73;;;;;;;;;;5061961;28;20181;-78
2023/05/17 13:54:16;;;;;;;3.73;3.00;;;;;;;;;;5060797;28;20174;-77
2023/05/17 13:56:41;;;;;;;5.10;2.77;;;;;;;;;;5059489;28;20169;-78
2023/05/17 13:59:06;;;;;;;3.87;3.50;;;;;;;;;;5060484;28;20186;-78
2023/05/17 14:01:31;;;;;;;9.20;5.40;;;;;;;;;;5058498;28;20281;-78
2023/05/17 14:03:57;;;;;;;6.80;3.37;;;;;;;;;;5060466;28;20204;-78
2023/05/17 14:06:23;;;;;;;5.30;3.03;;;;;;;;;;5055618;28;20191;-78
2023/05/17 14:08:48;;;;;;;6.77;3.27;;;;;;;;;;5056978;28;20178;-78
2023/05/17 14:11:13;;;;;;;6.13;3.00;;;;;;;;;;5061072;28;20185;-78
2023/05/17 14:13:39;;;;;;;6.27;3.30;;;;;;;;;;5060146;28;20183;-80
2023/05/17 14:16:05;;;;;;;3.13;2.83;;;;;;;;;;5059318;28;20281;-80
2023/05/17 14:18:31;;;;;;;6.70;2.97;;;;;;;;;;5062800;28;20320;-80
2023/05/17 14:20:56;;;;;;;4.70;3.13;;;;;;;;;;5060130;28;20202;-80
2023/05/17 14:23:21;;;;;;;5.03;2.93;;;;;;;;;;5062935;28;20170;-80
2023/05/17 14:25:48;;;;;;;4.53;3.20;;;;;;;;;;5061286;28;20183;-79
2023/05/17 14:28:13;;;;;;;6.57;2.90;;;;;;;;;;5061307;28;20394;-80
2023/05/17 14:30:39;;;;;;;5.93;3.67;;;;;;;;;;5057583;28;20304;-80
2023/05/17 14:33:04;;;;;;;6.07;3.23;;;;;;;;;;5060420;28;20185;-80
2023/05/17 14:35:29;;;;;;;4.30;3.10;;;;;;;;;;5061202;28;20185;-79
2023/05/17 14:37:55;;;;;;;4.60;3.23;;;;;;;;;;5062575;28;20185;-80